sensor_id;sensor_type;location;lat;lon;timestamp;pressure;altitude;pressure_sealevel;temperature;humidity
62712;BME280;48772;55.586;37.730;2023-02-28T00:00:26;99832.84;;;-6.34;100.00
62712;BME280;48772;55.586;37.730;2023-02-28T00:02:52;99830.31;;;-6.38;100.00
62712;BME280;48772;55.586;37.730;2023-02-28T00:05:20;99813.09;;;-6.45;100.00
62712;BME280;48772;55.586;37.730;2023-02-28T00:07:46;99789.03;;;-6.59;100.00
62712;BME280;48772;55.586;37.730;2023-02-28T00:10:18;99808.91;;;-6.63;100.00
62712;BME280;48772;55.586;37.730;2023-02-28T00:12:47;99795.16;;;-6.71;100.00
62712;BME280;48772;55.586;37.730;2023-02-28T00:15:13;99795.94;;;-6.61;100.00
62712;BME280;48772;55.586;37.730;2023-02-28T00:17:39;99703.25;;;-7.25;100.00
62712;BME280;48772;55.586;37.730;2023-02-28T00:20:06;99803.72;;;-6.63;100.00
62712;BME280;48772;55.586;37.730;2023-02-28T00:22:39;99661.16;;;-7.45;100.00
62712;BME280;48772;55.586;37.730;2023-02-28T00:25:07;99706.69;;;-7.20;100.00
62712;BME280;48772;55.586;37.730;2023-02-28T00:27:35;99690.34;;;-7.29;100.00
62712;BME280;48772;55.586;37.730;2023-02-28T00:30:05;99670.59;;;-7.41;100.00
62712;BME280;48772;55.586;37.730;2023-02-28T00:32:32;99639.72;;;-7.62;100.00
62712;BME280;48772;55.586;37.730;2023-02-28T00:35:01;99749.63;;;-6.96;100.00
62712;BME280;48772;55.586;37.730;2023-02-28T00:37:29;99661.16;;;-7.46;100.00
62712;BME280;48772;55.586;37.730;2023-02-28T00:39:55;99716.16;;;-7.20;100.00
62712;BME280;48772;55.586;37.730;2023-02-28T00:42:22;99750.63;;;-7.09;100.00
62712;BME280;48772;55.586;37.730;2023-02-28T00:44:48;99658.69;;;-7.61;100.00
62712;BME280;48772;55.586;37.730;2023-02-28T00:47:14;99709.41;;;-7.36;100.00
62712;BME280;48772;55.586;37.730;2023-02-28T00:49:40;99747.22;;;-7.17;100.00
62712;BME280;48772;55.586;37.730;2023-02-28T00:52:09;99699.06;;;-7.36;100.00
62712;BME280;48772;55.586;37.730;2023-02-28T00:54:35;99721.31;;;-7.16;100.00
62712;BME280;48772;55.586;37.730;2023-02-28T00:57:01;99749.69;;;-7.02;100.00
62712;BME280;48772;55.586;37.730;2023-02-28T00:59:27;99692.13;;;-7.37;100.00
62712;BME280;48772;55.586;37.730;2023-02-28T01:01:53;99665.59;;;-7.60;100.00
62712;BME280;48772;55.586;37.730;2023-02-28T01:04:18;99637.22;;;-7.69;100.00
62712;BME280;48772;55.586;37.730;2023-02-28T01:06:45;99754.00;;;-7.04;100.00
62712;BME280;48772;55.586;37.730;2023-02-28T01:09:11;99697.31;;;-7.37;100.00
62712;BME280;48772;55.586;37.730;2023-02-28T01:11:37;99760.97;;;-7.06;100.00
62712;BME280;48772;55.586;37.730;2023-02-28T01:14:03;99685.41;;;-7.58;100.00
62712;BME280;48772;55.586;37.730;2023-02-28T01:16:30;99663.91;;;-7.64;100.00
62712;BME280;48772;55.586;37.730;2023-02-28T01:18:56;99741.16;;;-7.15;100.00
62712;BME280;48772;55.586;37.730;2023-02-28T01:21:22;99602.03;;;-7.93;100.00
62712;BME280;48772;55.586;37.730;2023-02-28T01:23:48;99722.22;;;-7.20;100.00
62712;BME280;48772;55.586;37.730;2023-02-28T01:26:21;99708.47;;;-7.29;100.00
62712;BME280;48772;55.586;37.730;2023-02-28T01:28:49;99712.78;;;-7.28;100.00
62712;BME280;48772;55.586;37.730;2023-02-28T01:31:15;99736.81;;;-7.11;100.00
62712;BME280;48772;55.586;37.730;2023-02-28T01:33:41;99721.38;;;-7.26;100.00
62712;BME280;48772;55.586;37.730;2023-02-28T01:36:11;99717.06;;;-7.21;100.00
62712;BME280;48772;55.586;37.730;2023-02-28T01:38:38;99719.63;;;-7.21;100.00
62712;BME280;48772;55.586;37.730;2023-02-28T01:41:05;99690.53;;;-7.47;100.00
62712;BME280;48772;55.586;37.730;2023-02-28T01:46:12;99694.81;;;-7.46;100.00
62712;BME280;48772;55.586;37.730;2023-02-28T01:48:45;99703.47;;;-7.47;100.00
62712;BME280;48772;55.586;37.730;2023-02-28T01:51:45;99717.25;;;-7.48;100.00
62712;BME280;48772;55.586;37.730;2023-02-28T01:54:21;99665.72;;;-7.75;100.00
62712;BME280;48772;55.586;37.730;2023-02-28T01:56:52;99688.97;;;-7.69;100.00
62712;BME280;48772;55.586;37.730;2023-02-28T01:59:45;99699.22;;;-7.57;100.00
62712;BME280;48772;55.586;37.730;2023-02-28T02:02:17;99694.03;;;-7.57;100.00
62712;BME280;48772;55.586;37.730;2023-02-28T02:07:16;99643.34;;;-7.85;100.00
62712;BME280;48772;55.586;37.730;2023-02-28T02:09:44;99671.66;;;-7.66;100.00
62712;BME280;48772;55.586;37.730;2023-02-28T02:12:44;99675.97;;;-7.65;100.00
62712;BME280;48772;55.586;37.730;2023-02-28T02:15:13;99698.34;;;-7.58;100.00
62712;BME280;48772;55.586;37.730;2023-02-28T02:17:48;99647.63;;;-7.81;100.00
62712;BME280;48772;55.586;37.730;2023-02-28T02:35:24;99644.88;;;-7.57;100.00
62712;BME280;48772;55.586;37.730;2023-02-28T02:38:42;99653.44;;;-7.55;100.00
62712;BME280;48772;55.586;37.730;2023-02-28T02:41:52;99647.41;;;-7.53;100.00
62712;BME280;48772;55.586;37.730;2023-02-28T02:44:30;99647.44;;;-7.57;100.00
62712;BME280;48772;55.586;37.730;2023-02-28T02:47:10;99529.91;;;-8.27;100.00
62712;BME280;48772;55.586;37.730;2023-02-28T02:49:39;99625.91;;;-7.62;100.00
62712;BME280;48772;55.586;37.730;2023-02-28T02:52:12;99631.94;;;-7.62;100.00
62712;BME280;48772;55.586;37.730;2023-02-28T02:54:43;99638.75;;;-7.50;100.00
62712;BME280;48772;55.586;37.730;2023-02-28T02:57:25;99563.25;;;-7.94;100.00
62712;BME280;48772;55.586;37.730;2023-02-28T02:59:54;99616.50;;;-7.69;100.00
62712;BME280;48772;55.586;37.730;2023-02-28T03:02:22;99636.19;;;-7.52;100.00
62712;BME280;48772;55.586;37.730;2023-02-28T03:04:52;99582.03;;;-7.77;100.00
62712;BME280;48772;55.586;37.730;2023-02-28T03:07:20;99612.91;;;-7.53;100.00
62712;BME280;48772;55.586;37.730;2023-02-28T03:09:54;99612.03;;;-7.52;100.00
62712;BME280;48772;55.586;37.730;2023-02-28T03:12:20;99463.66;;;-8.37;100.00
62712;BME280;48772;55.586;37.730;2023-02-28T03:14:51;99573.44;;;-7.76;100.00
62712;BME280;48772;55.586;37.730;2023-02-28T03:20:10;99436.09;;;-8.41;100.00
62712;BME280;48772;55.586;37.730;2023-02-28T03:22:52;99583.53;;;-7.51;100.00
62712;BME280;48772;55.586;37.730;2023-02-28T03:28:22;99583.56;;;-7.55;100.00
62712;BME280;48772;55.586;37.730;2023-02-28T03:31:00;99489.16;;;-8.03;100.00
62712;BME280;48772;55.586;37.730;2023-02-28T03:33:36;99508.94;;;-7.96;100.00
62712;BME280;48772;55.586;37.730;2023-02-28T03:36:11;99568.94;;;-7.58;100.00
62712;BME280;48772;55.586;37.730;2023-02-28T03:39:13;99577.56;;;-7.59;100.00
62712;BME280;48772;55.586;37.730;2023-02-28T03:41:56;99554.25;;;-7.56;100.00
62712;BME280;48772;55.586;37.730;2023-02-28T03:44:34;99469.38;;;-8.05;100.00
62712;BME280;48772;55.586;37.730;2023-02-28T03:47:09;99530.06;;;-7.53;100.00
62712;BME280;48772;55.586;37.730;2023-02-28T03:49:41;99401.59;;;-8.37;100.00
62712;BME280;48772;55.586;37.730;2023-02-28T03:52:09;99529.22;;;-7.57;100.00
62712;BME280;48772;55.586;37.730;2023-02-28T03:54:48;99514.63;;;-7.62;100.00
62712;BME280;48772;55.586;37.730;2023-02-28T04:02:38;99512.84;;;-7.56;100.00
62712;BME280;48772;55.586;37.730;2023-02-28T04:05:06;99511.16;;;-7.60;100.00
62712;BME280;48772;55.586;37.730;2023-02-28T04:07:32;99412.56;;;-8.16;100.00
62712;BME280;48772;55.586;37.730;2023-02-28T04:09:58;99456.31;;;-7.93;100.00
62712;BME280;48772;55.586;37.730;2023-02-28T04:12:25;99425.41;;;-8.08;100.00
62712;BME280;48772;55.586;37.730;2023-02-28T04:14:51;99416.78;;;-8.09;100.00
62712;BME280;48772;55.586;37.730;2023-02-28T04:17:17;99345.66;;;-8.44;100.00
62712;BME280;48772;55.586;37.730;2023-02-28T04:19:44;99376.34;;;-8.16;100.00
62712;BME280;48772;55.586;37.730;2023-02-28T04:22:10;99368.03;;;-8.40;100.00
62712;BME280;48772;55.586;37.730;2023-02-28T04:24:36;99417.50;;;-7.92;100.00
62712;BME280;48772;55.586;37.730;2023-02-28T04:27:02;99411.44;;;-7.91;100.00
62712;BME280;48772;55.586;37.730;2023-02-28T04:29:30;99391.72;;;-8.02;100.00
62712;BME280;48772;55.586;37.730;2023-02-28T04:32:01;99436.22;;;-7.73;100.00
62712;BME280;48772;55.586;37.730;2023-02-28T04:34:29;99455.03;;;-7.58;100.00
62712;BME280;48772;55.586;37.730;2023-02-28T04:36:55;99470.59;;;-7.59;100.00
62712;BME280;48772;55.586;37.730;2023-02-28T04:39:23;99419.97;;;-7.84;100.00
62712;BME280;48772;55.586;37.730;2023-02-28T04:41:49;99453.16;;;-7.44;100.00
62712;BME280;48772;55.586;37.730;2023-02-28T04:44:16;99442.38;;;-7.12;100.00
62712;BME280;48772;55.586;37.730;2023-02-28T04:46:43;99448.19;;;-6.93;100.00
62712;BME280;48772;55.586;37.730;2023-02-28T04:49:12;99444.16;;;-6.56;100.00
62712;BME280;48772;55.586;37.730;2023-02-28T04:51:38;99359.31;;;-7.02;100.00
62712;BME280;48772;55.586;37.730;2023-02-28T04:54:04;99394.97;;;-6.61;100.00
62712;BME280;48772;55.586;37.730;2023-02-28T04:56:30;99439.28;;;-6.23;100.00
62712;BME280;48772;55.586;37.730;2023-02-28T04:58:56;99359.53;;;-6.59;100.00
62712;BME280;48772;55.586;37.730;2023-02-28T05:01:24;99419.19;;;-6.12;100.00
62712;BME280;48772;55.586;37.730;2023-02-28T05:03:52;99419.72;;;-6.42;100.00
62712;BME280;48772;55.586;37.730;2023-02-28T05:06:19;99384.03;;;-6.79;100.00
62712;BME280;48772;55.586;37.730;2023-02-28T05:08:46;99383.66;;;-6.57;100.00
62712;BME280;48772;55.586;37.730;2023-02-28T05:11:21;99370.72;;;-6.10;100.00
62712;BME280;48772;55.586;37.730;2023-02-28T05:13:48;99335.91;;;-5.97;100.00
62712;BME280;48772;55.586;37.730;2023-02-28T05:16:15;99352.56;;;-5.69;100.00
62712;BME280;48772;55.586;37.730;2023-02-28T05:18:40;99394.94;;;-5.26;100.00
62712;BME280;48772;55.586;37.730;2023-02-28T05:21:23;99309.75;;;-5.50;100.00
62712;BME280;48772;55.586;37.730;2023-02-28T05:23:50;99367.50;;;-4.99;100.00
62712;BME280;48772;55.586;37.730;2023-02-28T05:26:16;99324.16;;;-4.99;100.00
62712;BME280;48772;55.586;37.730;2023-02-28T05:28:42;99347.19;;;-4.84;100.00
62712;BME280;48772;55.586;37.730;2023-02-28T05:31:10;99319.84;;;-5.00;100.00
62712;BME280;48772;55.586;37.730;2023-02-28T05:33:36;99360.13;;;-4.46;100.00
62712;BME280;48772;55.586;37.730;2023-02-28T05:36:03;99330.59;;;-4.45;100.00
62712;BME280;48772;55.586;37.730;2023-02-28T05:38:29;99323.31;;;-4.31;100.00
62712;BME280;48772;55.586;37.730;2023-02-28T05:40:55;99254.38;;;-4.47;100.00
62712;BME280;48772;55.586;37.730;2023-02-28T05:43:22;99256.44;;;-4.29;100.00
62712;BME280;48772;55.586;37.730;2023-02-28T05:45:48;99269.78;;;-4.41;100.00
62712;BME280;48772;55.586;37.730;2023-02-28T05:48:14;99327.53;;;-3.64;100.00
62712;BME280;48772;55.586;37.730;2023-02-28T05:50:40;99299.06;;;-3.72;100.00
62712;BME280;48772;55.586;37.730;2023-02-28T05:53:06;99269.81;;;-3.80;100.00
62712;BME280;48772;55.586;37.730;2023-02-28T05:55:32;99244.47;;;-3.75;100.00
62712;BME280;48772;55.586;37.730;2023-02-28T05:57:57;99287.09;;;-3.48;100.00
62712;BME280;48772;55.586;37.730;2023-02-28T06:00:25;99243.09;;;-3.29;100.00
62712;BME280;48772;55.586;37.730;2023-02-28T06:02:50;99259.81;;;-3.09;100.00
62712;BME280;48772;55.586;37.730;2023-02-28T06:05:18;99263.25;;;-2.82;100.00
62712;BME280;48772;55.586;37.730;2023-02-28T06:07:44;99175.56;;;-3.65;100.00
62712;BME280;48772;55.586;37.730;2023-02-28T06:10:11;99192.28;;;-3.18;100.00
62712;BME280;48772;55.586;37.730;2023-02-28T06:12:38;99225.00;;;-3.08;100.00
62712;BME280;48772;55.586;37.730;2023-02-28T06:18:44;99195.31;;;-2.79;100.00
62712;BME280;48772;55.586;37.730;2023-02-28T06:21:12;99143.09;;;-3.02;100.00
62712;BME280;48772;55.586;37.730;2023-02-28T06:23:38;99231.56;;;-2.46;100.00
62712;BME280;48772;55.586;37.730;2023-02-28T06:26:04;99208.13;;;-2.72;100.00
62712;BME280;48772;55.586;37.730;2023-02-28T06:28:31;99237.06;;;-2.55;100.00
62712;BME280;48772;55.586;37.730;2023-02-28T06:30:56;99222.25;;;-2.30;100.00
62712;BME280;48772;55.586;37.730;2023-02-28T06:33:22;99143.72;;;-2.47;100.00
62712;BME280;48772;55.586;37.730;2023-02-28T06:35:52;99121.97;;;-2.24;100.00
62712;BME280;48772;55.586;37.730;2023-02-28T06:38:18;99195.88;;;-1.99;100.00
62712;BME280;48772;55.586;37.730;2023-02-28T06:40:44;99193.22;;;-1.32;100.00
62712;BME280;48772;55.586;37.730;2023-02-28T06:43:10;99211.03;;;-1.41;100.00
62712;BME280;48772;55.586;37.730;2023-02-28T06:45:43;99190.84;;;-1.38;100.00
62712;BME280;48772;55.586;37.730;2023-02-28T06:48:12;99173.72;;;-1.23;100.00
62712;BME280;48772;55.586;37.730;2023-02-28T06:50:38;99134.47;;;-1.45;100.00
62712;BME280;48772;55.586;37.730;2023-02-28T06:53:04;99155.41;;;-1.23;100.00
62712;BME280;48772;55.586;37.730;2023-02-28T06:55:30;99138.91;;;-1.25;100.00
62712;BME280;48772;55.586;37.730;2023-02-28T06:57:57;99176.25;;;-1.86;100.00
62712;BME280;48772;55.586;37.730;2023-02-28T07:00:23;99031.44;;;-2.91;100.00
62712;BME280;48772;55.586;37.730;2023-02-28T07:02:50;99110.66;;;-3.18;100.00
62712;BME280;48772;55.586;37.730;2023-02-28T07:05:16;99142.09;;;-2.74;100.00
62712;BME280;48772;55.586;37.730;2023-02-28T07:07:42;99138.91;;;-2.82;100.00
62712;BME280;48772;55.586;37.730;2023-02-28T07:10:11;99081.44;;;-3.03;100.00
62712;BME280;48772;55.586;37.730;2023-02-28T07:16:22;99048.56;;;-3.07;100.00
62712;BME280;48772;55.586;37.730;2023-02-28T07:18:48;99107.25;;;-2.73;100.00
62712;BME280;48772;55.586;37.730;2023-02-28T07:21:14;99099.63;;;-2.77;100.00
62712;BME280;48772;55.586;37.730;2023-02-28T07:23:41;99093.41;;;-2.98;100.00
62712;BME280;48772;55.586;37.730;2023-02-28T07:26:11;99065.38;;;-3.16;100.00
62712;BME280;48772;55.586;37.730;2023-02-28T07:28:41;99083.31;;;-2.84;100.00
62712;BME280;48772;55.586;37.730;2023-02-28T07:31:11;99041.31;;;-2.99;100.00
62712;BME280;48772;55.586;37.730;2023-02-28T07:33:59;99076.03;;;-2.74;100.00
62712;BME280;48772;55.586;37.730;2023-02-28T07:36:25;98982.06;;;-3.19;100.00
62712;BME280;48772;55.586;37.730;2023-02-28T07:38:51;99045.19;;;-2.63;100.00
62712;BME280;48772;55.586;37.730;2023-02-28T07:41:19;99001.38;;;-2.78;100.00
62712;BME280;48772;55.586;37.730;2023-02-28T07:43:45;99049.75;;;-2.70;100.00
62712;BME280;48772;55.586;37.730;2023-02-28T07:46:14;99014.69;;;-2.84;100.00
62712;BME280;48772;55.586;37.730;2023-02-28T07:48:44;98961.38;;;-3.00;100.00
62712;BME280;48772;55.586;37.730;2023-02-28T07:51:10;99036.84;;;-2.50;100.00
62712;BME280;48772;55.586;37.730;2023-02-28T07:53:36;98999.03;;;-2.84;100.00
62712;BME280;48772;55.586;37.730;2023-02-28T07:56:03;98998.84;;;-2.57;100.00
62712;BME280;48772;55.586;37.730;2023-02-28T07:58:30;98987.41;;;-2.54;100.00
62712;BME280;48772;55.586;37.730;2023-02-28T08:01:01;99027.28;;;-2.06;100.00
62712;BME280;48772;55.586;37.730;2023-02-28T08:03:30;99014.91;;;-2.01;100.00
62712;BME280;48772;55.586;37.730;2023-02-28T08:05:56;98918.44;;;-2.47;100.00
62712;BME280;48772;55.586;37.730;2023-02-28T08:08:22;98911.47;;;-2.47;100.00
62712;BME280;48772;55.586;37.730;2023-02-28T08:10:48;98977.84;;;-1.49;100.00
62712;BME280;48772;55.586;37.730;2023-02-28T08:13:14;98989.78;;;-1.24;100.00
62712;BME280;48772;55.586;37.730;2023-02-28T08:15:41;98957.53;;;-1.04;100.00
62712;BME280;48772;55.586;37.730;2023-02-28T08:18:08;99010.09;;;-0.72;100.00
62712;BME280;48772;55.586;37.730;2023-02-28T08:20:34;98993.84;;;0.30;100.00
62712;BME280;48772;55.586;37.730;2023-02-28T08:23:03;98961.06;;;0.56;100.00
62712;BME280;48772;55.586;37.730;2023-02-28T08:25:29;98972.19;;;1.10;100.00
62712;BME280;48772;55.586;37.730;2023-02-28T08:27:55;98918.44;;;0.35;100.00
62712;BME280;48772;55.586;37.730;2023-02-28T08:30:21;98965.56;;;0.54;100.00
62712;BME280;48772;55.586;37.730;2023-02-28T08:32:47;98912.09;;;-0.12;100.00
62712;BME280;48772;55.586;37.730;2023-02-28T08:35:13;98933.50;;;-0.75;100.00
62712;BME280;48772;55.586;37.730;2023-02-28T08:37:39;98972.81;;;-0.95;100.00
62712;BME280;48772;55.586;37.730;2023-02-28T08:40:05;98925.22;;;-0.66;100.00
62712;BME280;48772;55.586;37.730;2023-02-28T08:42:32;98912.78;;;-0.98;100.00
62712;BME280;48772;55.586;37.730;2023-02-28T08:44:58;98929.88;;;-1.10;100.00
62712;BME280;48772;55.586;37.730;2023-02-28T08:47:24;98896.97;;;-0.95;100.00
62712;BME280;48772;55.586;37.730;2023-02-28T08:49:51;98943.19;;;-0.96;100.00
62712;BME280;48772;55.586;37.730;2023-02-28T08:52:17;98908.47;;;-0.81;100.00
62712;BME280;48772;55.586;37.730;2023-02-28T08:54:43;98902.88;;;-0.73;100.00
62712;BME280;48772;55.586;37.730;2023-02-28T08:57:09;98939.72;;;-0.59;100.00
62712;BME280;48772;55.586;37.730;2023-02-28T08:59:35;98949.69;;;-0.67;100.00
62712;BME280;48772;55.586;37.730;2023-02-28T09:02:01;98923.66;;;-1.26;100.00
62712;BME280;48772;55.586;37.730;2023-02-28T09:04:27;98894.66;;;-1.21;100.00
62712;BME280;48772;55.586;37.730;2023-02-28T09:06:56;98947.13;;;-1.44;100.00
62712;BME280;48772;55.586;37.730;2023-02-28T09:09:21;98966.78;;;-1.56;100.00
62712;BME280;48772;55.586;37.730;2023-02-28T09:11:47;98977.19;;;-1.74;100.00
62712;BME280;48772;55.586;37.730;2023-02-28T09:14:13;98858.69;;;-2.13;100.00
62712;BME280;48772;55.586;37.730;2023-02-28T09:16:39;98940.34;;;-1.68;100.00
62712;BME280;48772;55.586;37.730;2023-02-28T09:19:05;98931.97;;;-1.76;100.00
62712;BME280;48772;55.586;37.730;2023-02-28T09:21:31;98912.00;;;-1.77;100.00
62712;BME280;48772;55.586;37.730;2023-02-28T09:23:57;98904.94;;;-1.95;100.00
62712;BME280;48772;55.586;37.730;2023-02-28T09:26:25;98919.13;;;-1.81;100.00
62712;BME280;48772;55.586;37.730;2023-02-28T09:28:52;98909.03;;;-1.90;100.00
62712;BME280;48772;55.586;37.730;2023-02-28T09:31:24;98902.38;;;-1.97;100.00
62712;BME280;48772;55.586;37.730;2023-02-28T09:33:52;98868.13;;;-1.89;100.00
62712;BME280;48772;55.586;37.730;2023-02-28T09:36:19;98897.81;;;-1.72;100.00
62712;BME280;48772;55.586;37.730;2023-02-28T09:38:45;98832.53;;;-1.92;100.00
62712;BME280;48772;55.586;37.730;2023-02-28T09:41:25;98852.41;;;-1.69;100.00
62712;BME280;48772;55.586;37.730;2023-02-28T09:43:59;98791.84;;;-2.17;100.00
62712;BME280;48772;55.586;37.730;2023-02-28T09:46:42;98878.03;;;-1.77;100.00
62712;BME280;48772;55.586;37.730;2023-02-28T09:49:14;98879.38;;;-1.89;100.00
62712;BME280;48772;55.586;37.730;2023-02-28T09:51:58;98818.63;;;-2.12;100.00
62712;BME280;48772;55.586;37.730;2023-02-28T09:54:28;98899.19;;;-1.83;100.00
62712;BME280;48772;55.586;37.730;2023-02-28T09:59:31;98891.03;;;-1.76;100.00
62712;BME280;48772;55.586;37.730;2023-02-28T10:02:08;98888.41;;;-1.76;100.00
62712;BME280;48772;55.586;37.730;2023-02-28T10:14:18;98789.38;;;-1.62;100.00
62712;BME280;48772;55.586;37.730;2023-02-28T10:16:55;98776.81;;;-1.92;100.00
62712;BME280;48772;55.586;37.730;2023-02-28T10:19:27;98841.94;;;-1.49;100.00
62712;BME280;48772;55.586;37.730;2023-02-28T10:22:11;98839.03;;;-1.43;100.00
62712;BME280;48772;55.586;37.730;2023-02-28T10:24:42;98852.03;;;-1.42;100.00
62712;BME280;48772;55.586;37.730;2023-02-28T10:27:26;98811.09;;;-1.61;100.00
62712;BME280;48772;55.586;37.730;2023-02-28T10:29:56;98798.69;;;-1.56;100.00
62712;BME280;48772;55.586;37.730;2023-02-28T10:32:27;98796.84;;;-1.54;100.00
62712;BME280;48772;55.586;37.730;2023-02-28T10:35:21;98828.50;;;-1.42;100.00
62712;BME280;48772;55.586;37.730;2023-02-28T10:37:50;98816.75;;;-1.70;100.00
62712;BME280;48772;55.586;37.730;2023-02-28T10:43:26;98809.91;;;-1.73;100.00
62712;BME280;48772;55.586;37.730;2023-02-28T10:46:13;98755.50;;;-1.83;100.00
62712;BME280;48772;55.586;37.730;2023-02-28T10:48:46;98779.38;;;-1.72;100.00
62712;BME280;48772;55.586;37.730;2023-02-28T10:51:18;98809.59;;;-1.67;100.00
62712;BME280;48772;55.586;37.730;2023-02-28T10:53:52;98791.84;;;-1.59;100.00
62712;BME280;48772;55.586;37.730;2023-02-28T10:56:20;98832.44;;;-1.70;100.00
62712;BME280;48772;55.586;37.730;2023-02-28T10:58:53;98770.78;;;-1.74;100.00
62712;BME280;48772;55.586;37.730;2023-02-28T11:01:39;98762.16;;;-1.58;100.00
62712;BME280;48772;55.586;37.730;2023-02-28T11:04:35;98792.91;;;-1.44;100.00
62712;BME280;48772;55.586;37.730;2023-02-28T11:07:21;98759.25;;;-1.70;100.00
62712;BME280;48772;55.586;37.730;2023-02-28T11:09:52;98789.78;;;-1.52;100.00
62712;BME280;48772;55.586;37.730;2023-02-28T11:12:28;98721.81;;;-1.71;100.00
62712;BME280;48772;55.586;37.730;2023-02-28T11:14:58;98777.06;;;-1.41;100.00
62712;BME280;48772;55.586;37.730;2023-02-28T11:17:30;98757.34;;;-1.48;100.00
62712;BME280;48772;55.586;37.730;2023-02-28T11:20:07;98710.41;;;-1.87;100.00
62712;BME280;48772;55.586;37.730;2023-02-28T11:22:44;98742.03;;;-1.74;100.00
62712;BME280;48772;55.586;37.730;2023-02-28T11:25:32;98695.16;;;-1.96;100.00
62712;BME280;48772;55.586;37.730;2023-02-28T11:28:01;98704.47;;;-1.90;100.00
62712;BME280;48772;55.586;37.730;2023-02-28T11:30:37;98757.06;;;-1.61;100.00
62712;BME280;48772;55.586;37.730;2023-02-28T11:33:26;98720.16;;;-1.90;100.00
62712;BME280;48772;55.586;37.730;2023-02-28T11:36:04;98689.78;;;-2.11;100.00
62712;BME280;48772;55.586;37.730;2023-02-28T11:38:36;98704.31;;;-1.87;100.00
62712;BME280;48772;55.586;37.730;2023-02-28T11:41:21;98762.22;;;-1.59;100.00
62712;BME280;48772;55.586;37.730;2023-02-28T11:46:25;98757.34;;;-1.67;100.00
62712;BME280;48772;55.586;37.730;2023-02-28T11:51:51;98783.41;;;-1.65;100.00
62712;BME280;48772;55.586;37.730;2023-02-28T12:00:15;98652.84;;;-2.22;100.00
62712;BME280;48772;55.586;37.730;2023-02-28T12:03:28;98662.34;;;-2.01;100.00
62712;BME280;48772;55.586;37.730;2023-02-28T12:06:18;98740.84;;;-1.67;100.00
62712;BME280;48772;55.586;37.730;2023-02-28T12:27:40;98708.91;;;-1.55;100.00
62712;BME280;48772;55.586;37.730;2023-02-28T12:31:10;98602.75;;;-2.30;100.00
62712;BME280;48772;55.586;37.730;2023-02-28T12:33:42;98670.84;;;-2.16;100.00
62712;BME280;48772;55.586;37.730;2023-02-28T12:36:13;98684.81;;;-1.80;100.00
62712;BME280;48772;55.586;37.730;2023-02-28T12:38:53;98654.75;;;-2.07;100.00
62712;BME280;48772;55.586;37.730;2023-02-28T12:41:41;98709.41;;;-1.84;100.00
62712;BME280;48772;55.586;37.730;2023-02-28T12:44:15;98684.78;;;-1.97;100.00
62712;BME280;48772;55.586;37.730;2023-02-28T12:46:46;98628.63;;;-2.26;100.00
62712;BME280;48772;55.586;37.730;2023-02-28T12:49:19;98712.38;;;-1.73;100.00
62712;BME280;48772;55.586;37.730;2023-02-28T12:51:47;98601.22;;;-2.34;100.00
62712;BME280;48772;55.586;37.730;2023-02-28T12:54:25;98700.63;;;-1.83;100.00
62712;BME280;48772;55.586;37.730;2023-02-28T12:57:46;98691.91;;;-1.82;100.00
62712;BME280;48772;55.586;37.730;2023-02-28T13:00:23;98592.53;;;-2.35;100.00
62712;BME280;48772;55.586;37.730;2023-02-28T13:06:22;98709.84;;;-1.93;100.00
62712;BME280;48772;55.586;37.730;2023-02-28T13:09:05;98687.22;;;-1.94;100.00
62712;BME280;48772;55.586;37.730;2023-02-28T13:11:50;98647.78;;;-2.07;100.00
62712;BME280;48772;55.586;37.730;2023-02-28T13:14:22;98651.19;;;-1.86;100.00
62712;BME280;48772;55.586;37.730;2023-02-28T13:16:55;98637.81;;;-1.80;100.00
62712;BME280;48772;55.586;37.730;2023-02-28T13:19:24;98579.03;;;-2.07;100.00
62712;BME280;48772;55.586;37.730;2023-02-28T13:21:53;98515.50;;;-2.43;100.00
62712;BME280;48772;55.586;37.730;2023-02-28T13:24:36;98624.25;;;-1.70;100.00
62712;BME280;48772;55.586;37.730;2023-02-28T13:29:37;98546.81;;;-2.25;100.00
62712;BME280;48772;55.586;37.730;2023-02-28T13:34:49;98589.00;;;-2.15;100.00
62712;BME280;48772;55.586;37.730;2023-02-28T13:37:35;98606.97;;;-1.91;100.00
62712;BME280;48772;55.586;37.730;2023-02-28T13:40:31;98529.03;;;-2.35;100.00
62712;BME280;48772;55.586;37.730;2023-02-28T13:43:05;98498.16;;;-2.44;100.00
62712;BME280;48772;55.586;37.730;2023-02-28T13:46:05;98592.38;;;-1.95;100.00
62712;BME280;48772;55.586;37.730;2023-02-28T13:48:33;98508.66;;;-2.46;100.00
62712;BME280;48772;55.586;37.730;2023-02-28T13:50:59;98509.88;;;-2.34;100.00
62712;BME280;48772;55.586;37.730;2023-02-28T13:56:26;98623.31;;;-1.69;100.00
62712;BME280;48772;55.586;37.730;2023-02-28T13:58:55;98599.28;;;-1.75;100.00
62712;BME280;48772;55.586;37.730;2023-02-28T14:07:00;98486.72;;;-2.23;100.00
62712;BME280;48772;55.586;37.730;2023-02-28T14:17:57;98515.03;;;-2.16;100.00
62712;BME280;48772;55.586;37.730;2023-02-28T14:20:27;98571.66;;;-1.81;100.00
62712;BME280;48772;55.586;37.730;2023-02-28T14:23:00;98595.59;;;-1.54;100.00
62712;BME280;48772;55.586;37.730;2023-02-28T14:31:15;98599.00;;;-1.52;100.00
62712;BME280;48772;55.586;37.730;2023-02-28T14:36:46;98470.97;;;-2.05;100.00
62712;BME280;48772;55.586;37.730;2023-02-28T14:39:16;98469.31;;;-2.06;100.00
62712;BME280;48772;55.586;37.730;2023-02-28T14:41:44;98456.47;;;-2.10;100.00
62712;BME280;48772;55.586;37.730;2023-02-28T14:46:41;98439.25;;;-2.14;100.00
62712;BME280;48772;55.586;37.730;2023-02-28T14:49:26;98433.34;;;-2.18;100.00
62712;BME280;48772;55.586;37.730;2023-02-28T14:54:38;98450.09;;;-2.05;100.00
62712;BME280;48772;55.586;37.730;2023-02-28T14:57:04;98558.09;;;-1.53;100.00
62712;BME280;48772;55.586;37.730;2023-02-28T14:59:35;98545.41;;;-1.61;100.00
62712;BME280;48772;55.586;37.730;2023-02-28T15:02:37;98530.25;;;-1.54;100.00
62712;BME280;48772;55.586;37.730;2023-02-28T15:07:36;98423.28;;;-2.25;100.00